createdAt,value
2023-02-20T00:01:38.855Z,17.27
2023-02-20T00:05:40.199Z,17.22
2023-02-20T00:09:41.573Z,17.28
2023-02-20T00:13:47.749Z,17.26
2023-02-20T00:17:49.799Z,17.25
2023-02-20T00:21:52.765Z,17.23
2023-02-20T00:25:54.052Z,17.25
2023-02-20T00:29:55.398Z,17.20
2023-02-20T00:33:56.750Z,17.10
2023-02-20T00:37:58.101Z,17.05
2023-02-20T00:41:59.453Z,17.07
2023-02-20T00:46:00.830Z,17.08
2023-02-20T00:50:02.291Z,17.05
2023-02-20T00:54:03.845Z,17.03
2023-02-20T00:58:05.212Z,17.11
2023-02-20T01:02:06.621Z,17.07
2023-02-20T01:06:07.994Z,17.07
2023-02-20T01:10:10.636Z,17.23
2023-02-20T01:14:13.637Z,17.06
2023-02-20T01:18:14.947Z,17.28
2023-02-20T01:22:16.386Z,17.38
2023-02-20T01:26:18.025Z,16.97
2023-02-20T01:30:19.686Z,17.12
2023-02-20T01:34:22.081Z,17.25
2023-02-20T01:38:23.406Z,17.18
2023-02-20T01:42:28.424Z,17.30
2023-02-20T01:46:29.752Z,17.22
2023-02-20T01:50:36.839Z,17.21
2023-02-20T01:54:41.127Z,17.24
2023-02-20T01:58:49.574Z,17.15
2023-02-20T02:03:11.492Z,16.93
2023-02-20T02:07:13.067Z,16.74
2023-02-20T02:11:18.953Z,16.88
2023-02-20T02:15:23.106Z,16.42
2023-02-20T02:19:39.471Z,16.87
2023-02-20T02:24:20.933Z,16.81
2023-02-20T02:28:56.235Z,16.39
2023-02-20T02:33:03.499Z,16.60
2023-02-20T02:37:26.222Z,16.40
2023-02-20T02:41:53.552Z,16.33
2023-02-20T02:46:00.608Z,16.70
2023-02-20T02:50:18.577Z,16.41
2023-02-20T02:54:26.250Z,16.39
2023-02-20T02:58:27.711Z,16.44
2023-02-20T03:02:38.167Z,16.43
2023-02-20T03:06:44.981Z,16.27
2023-02-20T03:10:46.432Z,15.98
2023-02-20T03:15:23.947Z,16.08
2023-02-20T03:19:36.117Z,16.09
2023-02-20T03:23:42.395Z,16.31
2023-02-20T03:27:46.421Z,16.45
2023-02-20T03:32:10.877Z,16.49
2023-02-20T03:36:37.773Z,16.34
2023-02-20T03:41:00.438Z,16.21
2023-02-20T03:45:04.974Z,16.27
2023-02-20T03:49:14.210Z,16.22
2023-02-20T03:53:16.120Z,16.30
2023-02-20T03:57:27.195Z,16.21
2023-02-20T04:01:28.801Z,16.06
2023-02-20T04:05:37.472Z,16.26
2023-02-20T04:09:42.423Z,16.19
2023-02-20T04:13:44.892Z,16.08
2023-02-20T04:17:59.821Z,15.98
2023-02-20T04:22:04.228Z,16.25
2023-02-20T04:26:10.990Z,16.13
2023-02-20T04:30:12.957Z,16.11
2023-02-20T04:34:14.482Z,16.07
2023-02-20T04:38:16.025Z,16.00
2023-02-20T04:42:17.341Z,16.05
2023-02-20T04:46:18.989Z,16.05
2023-02-20T04:50:32.314Z,16.12
2023-02-20T04:54:33.938Z,16.05
2023-02-20T04:58:37.247Z,16.06
2023-02-20T05:02:39.600Z,15.96
2023-02-20T05:06:43.740Z,16.06
2023-02-20T05:10:46.839Z,16.09
2023-02-20T05:14:48.162Z,16.20
2023-02-20T05:18:49.560Z,16.09
2023-02-20T05:22:50.989Z,16.06
2023-02-20T05:26:53.155Z,15.94
2023-02-20T05:30:54.592Z,15.88
2023-02-20T05:34:56.428Z,16.01
2023-02-20T05:38:57.784Z,16.01
2023-02-20T05:42:59.093Z,15.91
2023-02-20T05:47:00.576Z,15.88
2023-02-20T05:51:01.894Z,16.01
2023-02-20T05:55:03.758Z,15.99
2023-02-20T05:59:05.105Z,16.00
2023-02-20T06:03:08.192Z,15.98
2023-02-20T06:07:12.316Z,15.90
2023-02-20T06:11:14.691Z,15.79
2023-02-20T06:15:16.387Z,15.81
2023-02-20T06:19:20.065Z,15.71
2023-02-20T06:23:21.462Z,16.00
2023-02-20T06:27:22.828Z,15.97
2023-02-20T06:31:27.222Z,16.15
2023-02-20T06:35:28.644Z,15.95
2023-02-20T06:39:31.733Z,15.98
2023-02-20T06:43:33.001Z,15.82
2023-02-20T06:47:34.354Z,15.97
2023-02-20T06:51:36.774Z,16.06
2023-02-20T06:55:38.361Z,16.12
2023-02-20T06:59:41.540Z,16.15
2023-02-20T07:03:43.742Z,16.26
2023-02-20T07:07:45.136Z,16.12
2023-02-20T07:11:47.140Z,16.21
2023-02-20T07:15:49.324Z,16.42
2023-02-20T07:19:51.293Z,16.62
2023-02-20T07:23:53.525Z,16.70
2023-02-20T07:27:54.856Z,16.75
2023-02-20T07:31:56.339Z,16.66
2023-02-20T07:35:57.698Z,16.76
2023-02-20T07:39:59.050Z,16.55
2023-02-20T07:44:00.543Z,17.15
2023-02-20T07:48:01.944Z,16.76
2023-02-20T07:52:03.543Z,16.70
2023-02-20T07:56:06.307Z,17.51
2023-02-20T08:00:11.090Z,17.37
2023-02-20T08:04:12.410Z,17.61
2023-02-20T08:08:13.718Z,17.81
2023-02-20T08:12:17.218Z,17.49
2023-02-20T08:16:18.729Z,17.87
2023-02-20T08:20:21.239Z,18.38
2023-02-20T08:24:22.574Z,18.34
2023-02-20T08:28:24.014Z,18.51
2023-02-20T08:32:25.749Z,18.55
2023-02-20T08:36:27.344Z,18.45
2023-02-20T08:40:28.669Z,18.71
2023-02-20T08:44:30.053Z,18.72
2023-02-20T08:48:31.438Z,19.07
2023-02-20T08:52:32.802Z,19.19
2023-02-20T08:56:34.170Z,19.61
2023-02-20T09:00:35.814Z,18.96
2023-02-20T09:04:37.155Z,19.42
2023-02-20T09:08:38.524Z,19.37
2023-02-20T09:12:42.082Z,19.35
2023-02-20T09:16:43.637Z,19.12
2023-02-20T09:20:45.012Z,19.70
2023-02-20T09:24:47.314Z,19.32
2023-02-20T09:28:48.660Z,19.01
2023-02-20T09:32:54.492Z,19.22
2023-02-20T09:36:55.866Z,19.97
2023-02-20T09:41:00.408Z,20.45
2023-02-20T09:45:11.674Z,20.23
2023-02-20T09:49:15.764Z,19.72
2023-02-20T09:53:26.648Z,20.31
2023-02-20T09:57:30.286Z,20.96
2023-02-20T10:01:41.240Z,21.03
2023-02-20T10:05:46.348Z,20.86
2023-02-20T10:09:48.721Z,21.38
2023-02-20T10:14:05.268Z,21.98
2023-02-20T10:18:19.793Z,23.97
2023-02-20T10:22:25.972Z,24.99
2023-02-20T10:26:33.956Z,25.69
2023-02-20T10:30:46.206Z,26.86
2023-02-20T10:35:04.728Z,26.78
2023-02-20T10:39:16.675Z,27.38
2023-02-20T10:43:25.107Z,27.96
2023-02-20T10:47:50.597Z,26.74
2023-02-20T10:51:57.002Z,25.83
2023-02-20T10:56:16.940Z,26.65
2023-02-20T11:00:38.424Z,26.57
2023-02-20T11:04:42.428Z,26.18
2023-02-20T11:08:44.207Z,25.22
2023-02-20T11:12:51.122Z,26.20
2023-02-20T11:16:58.832Z,27.08
2023-02-20T11:21:00.446Z,27.69
2023-02-20T11:25:19.248Z,29.72
2023-02-20T11:29:23.804Z,28.32
2023-02-20T11:33:29.142Z,26.74
2023-02-20T11:37:30.682Z,24.90
2023-02-20T11:41:37.343Z,24.62
2023-02-20T11:45:39.586Z,25.55
2023-02-20T11:49:40.984Z,25.05
2023-02-20T11:53:44.314Z,23.49
2023-02-20T11:57:47.414Z,25.12
2023-02-20T12:02:00.323Z,27.67
2023-02-20T12:06:34.550Z,28.31
2023-02-20T12:10:48.440Z,27.34
2023-02-20T12:14:50.814Z,25.13
2023-02-20T12:19:01.263Z,24.46
2023-02-20T12:23:26.877Z,23.70
2023-02-20T12:27:31.112Z,22.67
2023-02-20T12:31:55.048Z,22.75
2023-02-20T12:36:09.602Z,22.46
2023-02-20T12:40:26.625Z,22.48
2023-02-20T12:45:00.337Z,21.94
2023-02-20T12:49:30.057Z,21.61
2023-02-20T12:53:53.629Z,21.35
2023-02-20T12:58:25.698Z,21.78
2023-02-20T13:02:46.202Z,21.85
2023-02-20T13:07:15.515Z,21.69
2023-02-20T13:11:22.371Z,22.22
2023-02-20T13:15:29.722Z,22.21
2023-02-20T13:19:40.367Z,22.41
2023-02-20T13:23:42.221Z,22.20
2023-02-20T13:27:43.658Z,22.04
2023-02-20T13:31:52.576Z,21.86
2023-02-20T13:35:56.442Z,22.89
2023-02-20T13:39:57.963Z,22.40
2023-02-20T13:44:31.492Z,22.44
2023-02-20T13:48:35.843Z,22.17
2023-02-20T13:52:42.900Z,22.47
2023-02-20T13:56:54.815Z,22.16
2023-02-20T14:00:56.309Z,22.41
2023-02-20T14:05:04.137Z,22.86
2023-02-20T14:09:11.461Z,21.71
2023-02-20T14:13:34.126Z,22.50
2023-02-20T14:17:43.081Z,22.32
2023-02-20T14:21:44.633Z,22.03
2023-02-20T14:26:00.896Z,21.52
2023-02-20T14:30:08.890Z,21.11
2023-02-20T14:34:22.166Z,21.28
2023-02-20T14:38:38.261Z,21.04
2023-02-20T14:42:43.806Z,21.34
2023-02-20T14:46:46.023Z,20.90
2023-02-20T14:50:47.383Z,21.00
2023-02-20T14:55:03.437Z,20.94
2023-02-20T14:59:24.448Z,21.09
2023-02-20T15:03:31.001Z,21.38
2023-02-20T15:07:34.079Z,21.21
2023-02-20T15:11:45.293Z,20.75
2023-02-20T15:15:51.082Z,20.70
2023-02-20T15:19:53.055Z,20.92
2023-02-20T15:23:54.485Z,21.19
2023-02-20T15:28:24.340Z,21.08
2023-02-20T15:32:26.084Z,20.22
2023-02-20T15:36:27.628Z,20.13
2023-02-20T15:40:33.818Z,20.11
2023-02-20T15:44:35.252Z,20.10
2023-02-20T15:48:36.770Z,20.39
2023-02-20T15:52:38.239Z,20.42
2023-02-20T15:56:40.468Z,19.78
2023-02-20T16:00:41.895Z,19.81
2023-02-20T16:04:43.231Z,20.21
2023-02-20T16:08:45.884Z,19.67
2023-02-20T16:12:50.782Z,20.01
2023-02-20T16:16:53.600Z,19.42
2023-02-20T16:20:57.171Z,19.42
2023-02-20T16:24:58.616Z,19.13
2023-02-20T16:29:03.283Z,19.15
2023-02-20T16:33:24.098Z,19.26
2023-02-20T16:37:26.852Z,19.54
2023-02-20T16:41:28.436Z,19.24
2023-02-20T16:45:29.843Z,19.21
2023-02-20T16:49:37.051Z,18.65
2023-02-20T16:53:38.509Z,18.58
2023-02-20T16:57:39.936Z,18.44
2023-02-20T17:01:41.847Z,18.52
2023-02-20T17:05:43.281Z,18.71
2023-02-20T17:09:46.642Z,18.68
2023-02-20T17:13:48.412Z,18.94
2023-02-20T17:17:50.350Z,18.63
2023-02-20T17:21:52.270Z,18.37
2023-02-20T17:25:53.668Z,18.67
2023-02-20T17:29:55.152Z,18.73
2023-02-20T17:33:58.678Z,19.13
2023-02-20T17:38:00.254Z,18.98
2023-02-20T17:42:02.064Z,19.03
2023-02-20T17:46:03.485Z,18.65
2023-02-20T17:50:07.121Z,18.53
2023-02-20T17:54:08.605Z,18.65
2023-02-20T17:58:10.269Z,18.66
2023-02-20T18:02:13.422Z,18.64
2023-02-20T18:06:15.101Z,18.61
2023-02-20T18:10:21.200Z,18.77
2023-02-20T18:14:24.842Z,18.77
2023-02-20T18:18:26.178Z,18.59
2023-02-20T18:22:27.553Z,18.87
2023-02-20T18:26:30.806Z,19.02
2023-02-20T18:30:33.611Z,18.84
2023-02-20T18:34:35.025Z,18.65
2023-02-20T18:38:41.519Z,18.96
2023-02-20T18:42:42.812Z,18.96
2023-02-20T18:46:46.651Z,18.61
2023-02-20T18:50:49.701Z,18.78
2023-02-20T18:54:51.209Z,18.95
2023-02-20T18:58:56.716Z,18.95
2023-02-20T19:03:01.898Z,18.76
2023-02-20T19:07:04.384Z,19.10
2023-02-20T19:11:05.696Z,19.10
2023-02-20T19:15:07.766Z,19.24
2023-02-20T19:19:09.198Z,19.33
2023-02-20T19:23:10.589Z,19.12
2023-02-20T19:27:15.042Z,19.28
2023-02-20T19:31:16.732Z,19.15
2023-02-20T19:35:18.830Z,19.21
2023-02-20T19:39:20.289Z,19.14
2023-02-20T19:43:21.614Z,18.89
2023-02-20T19:47:23.076Z,18.91
2023-02-20T19:51:24.512Z,18.76
2023-02-20T19:55:26.652Z,18.98
2023-02-20T19:59:29.062Z,19.18
2023-02-20T20:03:30.433Z,19.18
2023-02-20T20:07:32.510Z,19.07
2023-02-20T20:11:33.888Z,19.20
2023-02-20T20:15:36.840Z,19.31
2023-02-20T20:19:39.009Z,19.31
2023-02-20T20:23:41.905Z,18.86
2023-02-20T20:27:43.326Z,18.93
2023-02-20T20:31:44.782Z,19.43
2023-02-20T20:35:46.326Z,19.03
2023-02-20T20:39:47.756Z,18.97
2023-02-20T20:43:49.099Z,18.83
2023-02-20T20:47:50.653Z,19.35
2023-02-20T20:51:51.951Z,19.33
2023-02-20T20:55:53.292Z,19.21
2023-02-20T20:59:55.852Z,19.34
2023-02-20T21:03:57.218Z,19.21
2023-02-20T21:07:59.206Z,19.14
2023-02-20T21:12:00.624Z,19.04
2023-02-20T21:16:02.086Z,19.22
2023-02-20T21:20:07.774Z,19.15
2023-02-20T21:24:09.246Z,19.22
2023-02-20T21:28:10.586Z,18.99
2023-02-20T21:32:12.347Z,19.37
2023-02-20T21:36:13.715Z,19.03
2023-02-20T21:40:17.089Z,19.21
2023-02-20T21:44:26.782Z,19.37
2023-02-20T21:48:28.181Z,19.14
2023-02-20T21:52:36.475Z,19.45
2023-02-20T21:56:37.969Z,19.31
2023-02-20T22:00:39.330Z,19.41
2023-02-20T22:04:40.618Z,19.34
2023-02-20T22:09:00.626Z,19.45
2023-02-20T22:13:20.412Z,19.30
2023-02-20T22:17:40.572Z,19.43
2023-02-20T22:22:00.399Z,19.58
2023-02-20T22:26:20.242Z,19.44
2023-02-20T22:30:40.358Z,19.54
2023-02-20T22:35:10.869Z,19.50
2023-02-20T22:39:33.692Z,19.62
2023-02-20T22:43:54.302Z,19.61
2023-02-20T22:48:14.693Z,19.50
2023-02-20T22:52:34.569Z,19.55
2023-02-20T22:56:54.664Z,19.41
2023-02-20T23:01:15.287Z,19.55
2023-02-20T23:05:35.403Z,19.45
2023-02-20T23:09:55.256Z,19.38
2023-02-20T23:14:15.296Z,19.51
2023-02-20T23:18:35.083Z,19.55
2023-02-20T23:22:54.868Z,19.45
2023-02-20T23:27:15.439Z,19.53
2023-02-20T23:31:36.176Z,19.24
2023-02-20T23:35:56.154Z,19.54
2023-02-20T23:40:21.160Z,19.51
2023-02-20T23:44:43.855Z,19.46
2023-02-20T23:49:03.978Z,19.45
2023-02-20T23:53:23.954Z,19.52
2023-02-20T23:57:43.791Z,19.59
